sensor_id;sensor_type;location;lat;lon;timestamp;temperature;humidity
50969;DHT22;36982;51.474;7.228;2022-09-13T00:01:42;18.20;99.90
50969;DHT22;36982;51.474;7.228;2022-09-13T00:04:07;18.20;99.90
50969;DHT22;36982;51.474;7.228;2022-09-13T00:06:33;18.10;99.90
50969;DHT22;36982;51.474;7.228;2022-09-13T00:08:59;18.10;99.90
50969;DHT22;36982;51.474;7.228;2022-09-13T00:11:27;18.10;99.90
50969;DHT22;36982;51.474;7.228;2022-09-13T00:13:54;18.10;99.90
50969;DHT22;36982;51.474;7.228;2022-09-13T00:16:22;18.10;99.90
50969;DHT22;36982;51.474;7.228;2022-09-13T00:18:49;18.10;99.90
50969;DHT22;36982;51.474;7.228;2022-09-13T00:21:17;18.20;99.90
50969;DHT22;36982;51.474;7.228;2022-09-13T00:23:49;18.20;99.90
50969;DHT22;36982;51.474;7.228;2022-09-13T00:26:24;18.20;99.90
50969;DHT22;36982;51.474;7.228;2022-09-13T00:28:53;18.20;99.90
50969;DHT22;36982;51.474;7.228;2022-09-13T00:31:20;18.30;99.90
50969;DHT22;36982;51.474;7.228;2022-09-13T00:33:47;18.30;99.90
50969;DHT22;36982;51.474;7.228;2022-09-13T00:36:13;18.30;99.90
50969;DHT22;36982;51.474;7.228;2022-09-13T00:38:40;18.40;99.90
50969;DHT22;36982;51.474;7.228;2022-09-13T00:41:08;18.40;99.90
50969;DHT22;36982;51.474;7.228;2022-09-13T00:43:53;18.50;99.90
50969;DHT22;36982;51.474;7.228;2022-09-13T00:46:24;18.50;99.90
50969;DHT22;36982;51.474;7.228;2022-09-13T00:48:54;18.50;99.90
50969;DHT22;36982;51.474;7.228;2022-09-13T00:51:21;18.50;99.90
50969;DHT22;36982;51.474;7.228;2022-09-13T00:53:50;18.40;99.90
50969;DHT22;36982;51.474;7.228;2022-09-13T00:56:37;18.50;99.90
50969;DHT22;36982;51.474;7.228;2022-09-13T00:59:13;18.70;99.90
50969;DHT22;36982;51.474;7.228;2022-09-13T01:01:45;18.60;99.90
50969;DHT22;36982;51.474;7.228;2022-09-13T01:04:12;18.70;99.90
50969;DHT22;36982;51.474;7.228;2022-09-13T01:06:39;18.70;99.90
50969;DHT22;36982;51.474;7.228;2022-09-13T01:09:06;18.70;99.90
50969;DHT22;36982;51.474;7.228;2022-09-13T01:14:01;18.60;99.90
50969;DHT22;36982;51.474;7.228;2022-09-13T01:16:27;18.70;99.90
50969;DHT22;36982;51.474;7.228;2022-09-13T01:18:53;18.80;99.90
50969;DHT22;36982;51.474;7.228;2022-09-13T01:30:05;18.60;99.90
50969;DHT22;36982;51.474;7.228;2022-09-13T01:52:43;18.40;99.90
50969;DHT22;36982;51.474;7.228;2022-09-13T01:55:59;18.40;99.90
50969;DHT22;36982;51.474;7.228;2022-09-13T01:58:32;18.40;99.90
50969;DHT22;36982;51.474;7.228;2022-09-13T02:03:36;18.60;99.90
50969;DHT22;36982;51.474;7.228;2022-09-13T02:06:10;18.50;99.90
50969;DHT22;36982;51.474;7.228;2022-09-13T02:08:41;18.50;99.90
50969;DHT22;36982;51.474;7.228;2022-09-13T02:11:12;18.50;99.90
50969;DHT22;36982;51.474;7.228;2022-09-13T02:13:46;18.40;99.90
50969;DHT22;36982;51.474;7.228;2022-09-13T02:16:27;18.30;99.90
50969;DHT22;36982;51.474;7.228;2022-09-13T02:18:58;18.50;99.90
50969;DHT22;36982;51.474;7.228;2022-09-13T02:21:29;18.50;99.90
50969;DHT22;36982;51.474;7.228;2022-09-13T02:24:06;18.40;99.90
50969;DHT22;36982;51.474;7.228;2022-09-13T02:26:33;18.60;99.90
50969;DHT22;36982;51.474;7.228;2022-09-13T02:29:03;18.40;99.90
50969;DHT22;36982;51.474;7.228;2022-09-13T02:31:41;18.50;99.90
50969;DHT22;36982;51.474;7.228;2022-09-13T02:34:21;18.50;99.90
50969;DHT22;36982;51.474;7.228;2022-09-13T02:36:48;18.70;99.90
50969;DHT22;36982;51.474;7.228;2022-09-13T02:39:17;18.60;99.90
50969;DHT22;36982;51.474;7.228;2022-09-13T02:42:02;18.70;99.90
50969;DHT22;36982;51.474;7.228;2022-09-13T02:44:44;18.60;99.90
50969;DHT22;36982;51.474;7.228;2022-09-13T03:01:10;18.80;99.90
50969;DHT22;36982;51.474;7.228;2022-09-13T03:03:36;18.70;99.90
50969;DHT22;36982;51.474;7.228;2022-09-13T03:06:01;18.60;99.90
50969;DHT22;36982;51.474;7.228;2022-09-13T03:08:28;18.70;99.90
50969;DHT22;36982;51.474;7.228;2022-09-13T03:13:48;18.70;99.90
50969;DHT22;36982;51.474;7.228;2022-09-13T03:16:47;18.80;99.90
50969;DHT22;36982;51.474;7.228;2022-09-13T03:22:24;18.80;99.90
50969;DHT22;36982;51.474;7.228;2022-09-13T03:25:47;18.80;99.90
50969;DHT22;36982;51.474;7.228;2022-09-13T03:31:05;18.80;99.90
50969;DHT22;36982;51.474;7.228;2022-09-13T03:33:46;18.80;99.90
50969;DHT22;36982;51.474;7.228;2022-09-13T03:36:31;18.80;99.90
50969;DHT22;36982;51.474;7.228;2022-09-13T03:41:50;18.80;99.90
50969;DHT22;36982;51.474;7.228;2022-09-13T03:44:19;18.80;99.90
50969;DHT22;36982;51.474;7.228;2022-09-13T03:46:48;18.80;99.90
50969;DHT22;36982;51.474;7.228;2022-09-13T03:49:17;18.70;99.90
50969;DHT22;36982;51.474;7.228;2022-09-13T03:51:46;18.70;99.90
50969;DHT22;36982;51.474;7.228;2022-09-13T03:54:31;18.70;99.90
50969;DHT22;36982;51.474;7.228;2022-09-13T03:57:20;18.80;99.90
50969;DHT22;36982;51.474;7.228;2022-09-13T03:59:54;18.70;99.90
50969;DHT22;36982;51.474;7.228;2022-09-13T04:02:21;18.80;99.90
50969;DHT22;36982;51.474;7.228;2022-09-13T04:04:48;18.70;99.90
50969;DHT22;36982;51.474;7.228;2022-09-13T04:07:17;18.70;99.90
50969;DHT22;36982;51.474;7.228;2022-09-13T04:09:43;18.60;99.90
50969;DHT22;36982;51.474;7.228;2022-09-13T04:12:10;18.60;99.90
50969;DHT22;36982;51.474;7.228;2022-09-13T04:14:36;18.60;99.90
50969;DHT22;36982;51.474;7.228;2022-09-13T04:17:02;18.50;99.90
50969;DHT22;36982;51.474;7.228;2022-09-13T04:19:28;18.60;99.90
50969;DHT22;36982;51.474;7.228;2022-09-13T04:21:54;18.40;99.90
50969;DHT22;36982;51.474;7.228;2022-09-13T04:24:24;18.30;99.90
50969;DHT22;36982;51.474;7.228;2022-09-13T04:26:51;18.30;99.90
50969;DHT22;36982;51.474;7.228;2022-09-13T04:29:17;18.50;99.90
50969;DHT22;36982;51.474;7.228;2022-09-13T04:31:44;18.20;99.90
50969;DHT22;36982;51.474;7.228;2022-09-13T04:34:10;18.50;99.90
50969;DHT22;36982;51.474;7.228;2022-09-13T04:36:36;18.30;99.90
50969;DHT22;36982;51.474;7.228;2022-09-13T04:39:02;18.30;99.90
50969;DHT22;36982;51.474;7.228;2022-09-13T04:41:28;18.30;99.90
50969;DHT22;36982;51.474;7.228;2022-09-13T04:43:54;18.40;99.90
50969;DHT22;36982;51.474;7.228;2022-09-13T04:46:19;18.40;99.90
50969;DHT22;36982;51.474;7.228;2022-09-13T04:48:49;18.20;99.90
50969;DHT22;36982;51.474;7.228;2022-09-13T04:51:15;18.20;99.90
50969;DHT22;36982;51.474;7.228;2022-09-13T04:53:45;18.40;99.90
50969;DHT22;36982;51.474;7.228;2022-09-13T04:56:10;18.10;99.90
50969;DHT22;36982;51.474;7.228;2022-09-13T04:58:38;18.20;99.90
50969;DHT22;36982;51.474;7.228;2022-09-13T05:01:06;18.20;99.90
50969;DHT22;36982;51.474;7.228;2022-09-13T05:03:33;18.20;99.90
50969;DHT22;36982;51.474;7.228;2022-09-13T05:06:05;18.30;99.90
50969;DHT22;36982;51.474;7.228;2022-09-13T05:08:31;18.30;99.90
50969;DHT22;36982;51.474;7.228;2022-09-13T05:10:58;18.30;99.90
50969;DHT22;36982;51.474;7.228;2022-09-13T05:13:24;18.30;99.90
50969;DHT22;36982;51.474;7.228;2022-09-13T05:15:54;18.20;99.90
50969;DHT22;36982;51.474;7.228;2022-09-13T05:18:20;18.20;99.90
50969;DHT22;36982;51.474;7.228;2022-09-13T05:20:45;18.30;99.90
50969;DHT22;36982;51.474;7.228;2022-09-13T05:23:11;18.30;99.90
50969;DHT22;36982;51.474;7.228;2022-09-13T05:25:36;18.20;99.90
50969;DHT22;36982;51.474;7.228;2022-09-13T05:28:02;18.30;99.90
50969;DHT22;36982;51.474;7.228;2022-09-13T05:30:27;18.40;99.90
50969;DHT22;36982;51.474;7.228;2022-09-13T05:32:53;18.40;99.90
50969;DHT22;36982;51.474;7.228;2022-09-13T05:35:19;18.40;99.90
50969;DHT22;36982;51.474;7.228;2022-09-13T05:37:45;18.40;99.90
50969;DHT22;36982;51.474;7.228;2022-09-13T05:40:10;18.40;99.90
50969;DHT22;36982;51.474;7.228;2022-09-13T05:42:36;18.40;99.90
50969;DHT22;36982;51.474;7.228;2022-09-13T05:45:01;18.60;99.90
50969;DHT22;36982;51.474;7.228;2022-09-13T05:47:27;18.50;99.90
50969;DHT22;36982;51.474;7.228;2022-09-13T05:49:53;18.50;99.90
50969;DHT22;36982;51.474;7.228;2022-09-13T05:52:18;18.50;99.90
50969;DHT22;36982;51.474;7.228;2022-09-13T05:54:44;18.60;99.90
50969;DHT22;36982;51.474;7.228;2022-09-13T05:57:09;18.50;99.90
50969;DHT22;36982;51.474;7.228;2022-09-13T05:59:35;18.60;99.90
50969;DHT22;36982;51.474;7.228;2022-09-13T06:02:00;18.80;99.90
50969;DHT22;36982;51.474;7.228;2022-09-13T06:04:26;19.00;99.90
50969;DHT22;36982;51.474;7.228;2022-09-13T06:06:52;18.80;99.90
50969;DHT22;36982;51.474;7.228;2022-09-13T06:09:17;18.80;99.90
50969;DHT22;36982;51.474;7.228;2022-09-13T06:11:43;18.80;99.90
50969;DHT22;36982;51.474;7.228;2022-09-13T06:14:08;18.80;99.90
50969;DHT22;36982;51.474;7.228;2022-09-13T06:16:35;18.80;99.90
50969;DHT22;36982;51.474;7.228;2022-09-13T06:19:01;18.90;99.90
50969;DHT22;36982;51.474;7.228;2022-09-13T06:21:27;18.90;99.90
50969;DHT22;36982;51.474;7.228;2022-09-13T06:23:53;19.10;99.90
50969;DHT22;36982;51.474;7.228;2022-09-13T06:26:21;19.00;99.90
50969;DHT22;36982;51.474;7.228;2022-09-13T06:28:51;19.00;99.90
50969;DHT22;36982;51.474;7.228;2022-09-13T06:31:18;19.00;99.90
50969;DHT22;36982;51.474;7.228;2022-09-13T06:33:44;19.10;99.90
50969;DHT22;36982;51.474;7.228;2022-09-13T06:36:15;18.90;99.90
50969;DHT22;36982;51.474;7.228;2022-09-13T06:38:47;19.10;99.90
50969;DHT22;36982;51.474;7.228;2022-09-13T06:41:16;19.00;99.90
50969;DHT22;36982;51.474;7.228;2022-09-13T06:43:45;19.10;99.90
50969;DHT22;36982;51.474;7.228;2022-09-13T06:46:16;19.10;99.90
50969;DHT22;36982;51.474;7.228;2022-09-13T06:48:43;19.10;99.90
50969;DHT22;36982;51.474;7.228;2022-09-13T06:51:15;19.20;99.90
50969;DHT22;36982;51.474;7.228;2022-09-13T06:53:42;19.10;99.90
50969;DHT22;36982;51.474;7.228;2022-09-13T06:56:12;19.20;99.90
50969;DHT22;36982;51.474;7.228;2022-09-13T06:58:39;19.30;99.90
50969;DHT22;36982;51.474;7.228;2022-09-13T07:03:17;19.20;99.90
50969;DHT22;36982;51.474;7.228;2022-09-13T07:05:43;19.20;99.90
50969;DHT22;36982;51.474;7.228;2022-09-13T07:08:08;19.10;99.90
50969;DHT22;36982;51.474;7.228;2022-09-13T07:10:40;19.10;99.90
50969;DHT22;36982;51.474;7.228;2022-09-13T07:13:05;19.30;99.90
50969;DHT22;36982;51.474;7.228;2022-09-13T07:15:35;19.20;99.90
50969;DHT22;36982;51.474;7.228;2022-09-13T07:18:01;19.10;99.90
50969;DHT22;36982;51.474;7.228;2022-09-13T07:20:26;19.40;99.90
50969;DHT22;36982;51.474;7.228;2022-09-13T07:22:53;19.40;99.90
50969;DHT22;36982;51.474;7.228;2022-09-13T07:25:18;19.60;99.90
50969;DHT22;36982;51.474;7.228;2022-09-13T07:27:44;19.60;99.90
50969;DHT22;36982;51.474;7.228;2022-09-13T07:30:09;19.70;99.90
50969;DHT22;36982;51.474;7.228;2022-09-13T07:32:35;19.50;99.90
50969;DHT22;36982;51.474;7.228;2022-09-13T07:35:01;19.70;99.90
50969;DHT22;36982;51.474;7.228;2022-09-13T07:37:26;19.70;99.90
50969;DHT22;36982;51.474;7.228;2022-09-13T07:39:52;19.90;99.90
50969;DHT22;36982;51.474;7.228;2022-09-13T07:42:18;20.00;99.90
50969;DHT22;36982;51.474;7.228;2022-09-13T07:44:43;20.20;99.90
50969;DHT22;36982;51.474;7.228;2022-09-13T07:47:12;20.40;99.90
50969;DHT22;36982;51.474;7.228;2022-09-13T07:49:38;20.50;99.90
50969;DHT22;36982;51.474;7.228;2022-09-13T07:52:03;20.60;99.90
50969;DHT22;36982;51.474;7.228;2022-09-13T07:54:29;20.50;99.90
50969;DHT22;36982;51.474;7.228;2022-09-13T07:56:55;20.60;99.90
50969;DHT22;36982;51.474;7.228;2022-09-13T07:59:20;20.90;99.90
50969;DHT22;36982;51.474;7.228;2022-09-13T08:01:48;21.10;99.90
50969;DHT22;36982;51.474;7.228;2022-09-13T08:04:24;21.10;99.90
50969;DHT22;36982;51.474;7.228;2022-09-13T08:07:26;21.10;99.90
50969;DHT22;36982;51.474;7.228;2022-09-13T08:10:27;20.90;99.90
50969;DHT22;36982;51.474;7.228;2022-09-13T08:12:56;21.00;99.90
50969;DHT22;36982;51.474;7.228;2022-09-13T08:15:34;21.00;99.90
50969;DHT22;36982;51.474;7.228;2022-09-13T08:18:04;20.90;99.90
50969;DHT22;36982;51.474;7.228;2022-09-13T08:20:39;20.90;99.90
50969;DHT22;36982;51.474;7.228;2022-09-13T08:23:05;21.10;99.90
50969;DHT22;36982;51.474;7.228;2022-09-13T08:25:33;21.30;99.90
50969;DHT22;36982;51.474;7.228;2022-09-13T08:28:00;21.30;99.90
50969;DHT22;36982;51.474;7.228;2022-09-13T08:30:26;21.40;99.90
50969;DHT22;36982;51.474;7.228;2022-09-13T08:32:58;21.40;99.90
50969;DHT22;36982;51.474;7.228;2022-09-13T08:35:24;21.40;99.90
50969;DHT22;36982;51.474;7.228;2022-09-13T08:37:50;21.40;99.90
50969;DHT22;36982;51.474;7.228;2022-09-13T08:40:16;21.50;99.90
50969;DHT22;36982;51.474;7.228;2022-09-13T08:45:22;21.10;99.90
50969;DHT22;36982;51.474;7.228;2022-09-13T08:47:56;21.10;99.90
50969;DHT22;36982;51.474;7.228;2022-09-13T08:50:27;21.00;99.90
50969;DHT22;36982;51.474;7.228;2022-09-13T09:07:01;21.20;99.90
50969;DHT22;36982;51.474;7.228;2022-09-13T09:13:15;21.20;99.90
50969;DHT22;36982;51.474;7.228;2022-09-13T09:15:54;21.30;99.90
50969;DHT22;36982;51.474;7.228;2022-09-13T09:18:24;21.40;99.90
50969;DHT22;36982;51.474;7.228;2022-09-13T09:20:54;21.60;99.90
50969;DHT22;36982;51.474;7.228;2022-09-13T09:23:35;21.70;99.90
50969;DHT22;36982;51.474;7.228;2022-09-13T09:26:18;21.70;99.90
50969;DHT22;36982;51.474;7.228;2022-09-13T09:37:23;21.80;99.90
50969;DHT22;36982;51.474;7.228;2022-09-13T09:39:41;21.90;99.90
50969;DHT22;36982;51.474;7.228;2022-09-13T09:42:22;22.00;99.90
50969;DHT22;36982;51.474;7.228;2022-09-13T09:44:59;22.10;99.90
50969;DHT22;36982;51.474;7.228;2022-09-13T09:47:49;22.10;99.90
50969;DHT22;36982;51.474;7.228;2022-09-13T09:50:17;22.20;99.90
50969;DHT22;36982;51.474;7.228;2022-09-13T09:53:07;22.20;99.90
50969;DHT22;36982;51.474;7.228;2022-09-13T09:58:41;22.50;99.90
50969;DHT22;36982;51.474;7.228;2022-09-13T10:01:28;22.50;99.90
50969;DHT22;36982;51.474;7.228;2022-09-13T10:04:01;22.40;99.90
50969;DHT22;36982;51.474;7.228;2022-09-13T10:06:28;22.50;99.90
50969;DHT22;36982;51.474;7.228;2022-09-13T10:09:05;22.60;99.90
50969;DHT22;36982;51.474;7.228;2022-09-13T10:14:40;22.70;99.90
50969;DHT22;36982;51.474;7.228;2022-09-13T10:17:26;23.00;99.90
50969;DHT22;36982;51.474;7.228;2022-09-13T10:19:53;23.00;99.90
50969;DHT22;36982;51.474;7.228;2022-09-13T10:22:20;23.10;99.90
50969;DHT22;36982;51.474;7.228;2022-09-13T10:24:47;23.30;99.90
50969;DHT22;36982;51.474;7.228;2022-09-13T10:29:55;23.50;99.90
50969;DHT22;36982;51.474;7.228;2022-09-13T10:32:25;23.20;99.90
50969;DHT22;36982;51.474;7.228;2022-09-13T10:34:51;23.30;99.90
50969;DHT22;36982;51.474;7.228;2022-09-13T10:37:18;23.40;99.90
50969;DHT22;36982;51.474;7.228;2022-09-13T10:39:54;23.50;99.90
50969;DHT22;36982;51.474;7.228;2022-09-13T10:42:24;23.50;99.90
50969;DHT22;36982;51.474;7.228;2022-09-13T10:45:17;23.60;99.90
50969;DHT22;36982;51.474;7.228;2022-09-13T10:47:47;23.50;99.90
50969;DHT22;36982;51.474;7.228;2022-09-13T10:52:53;23.70;99.90
50969;DHT22;36982;51.474;7.228;2022-09-13T11:00:15;23.90;99.90
50969;DHT22;36982;51.474;7.228;2022-09-13T11:11:54;23.60;99.90
50969;DHT22;36982;51.474;7.228;2022-09-13T11:18:05;23.70;99.90
50969;DHT22;36982;51.474;7.228;2022-09-13T11:21:01;23.60;99.90
50969;DHT22;36982;51.474;7.228;2022-09-13T11:28:57;23.70;99.90
50969;DHT22;36982;51.474;7.228;2022-09-13T11:34:15;24.00;99.90
50969;DHT22;36982;51.474;7.228;2022-09-13T11:36:48;24.00;99.90
50969;DHT22;36982;51.474;7.228;2022-09-13T11:40:07;24.10;99.90
50969;DHT22;36982;51.474;7.228;2022-09-13T11:42:46;24.10;99.90
50969;DHT22;36982;51.474;7.228;2022-09-13T11:45:28;24.10;99.90
50969;DHT22;36982;51.474;7.228;2022-09-13T11:53:48;24.20;99.90
50969;DHT22;36982;51.474;7.228;2022-09-13T11:56:36;24.30;99.90
50969;DHT22;36982;51.474;7.228;2022-09-13T12:01:58;24.50;99.90
50969;DHT22;36982;51.474;7.228;2022-09-13T12:04:45;24.40;99.90
50969;DHT22;36982;51.474;7.228;2022-09-13T12:07:29;24.30;99.90
50969;DHT22;36982;51.474;7.228;2022-09-13T12:10:06;24.30;99.90
50969;DHT22;36982;51.474;7.228;2022-09-13T12:12:38;24.30;99.90
50969;DHT22;36982;51.474;7.228;2022-09-13T12:15:13;24.30;99.90
50969;DHT22;36982;51.474;7.228;2022-09-13T12:17:57;24.30;99.90
50969;DHT22;36982;51.474;7.228;2022-09-13T12:20:33;24.30;99.90
50969;DHT22;36982;51.474;7.228;2022-09-13T12:23:04;24.50;99.90
50969;DHT22;36982;51.474;7.228;2022-09-13T12:25:50;24.70;99.90
50969;DHT22;36982;51.474;7.228;2022-09-13T12:28:43;24.50;99.90
50969;DHT22;36982;51.474;7.228;2022-09-13T12:31:14;24.50;99.90
50969;DHT22;36982;51.474;7.228;2022-09-13T12:33:41;24.70;99.90
50969;DHT22;36982;51.474;7.228;2022-09-13T12:47:29;25.30;99.70
50969;DHT22;36982;51.474;7.228;2022-09-13T12:50:16;25.40;99.60
50969;DHT22;36982;51.474;7.228;2022-09-13T12:53:26;25.20;99.90
50969;DHT22;36982;51.474;7.228;2022-09-13T13:01:09;25.00;99.90
50969;DHT22;36982;51.474;7.228;2022-09-13T13:08:52;24.40;99.90
50969;DHT22;36982;51.474;7.228;2022-09-13T13:11:29;24.30;99.90
50969;DHT22;36982;51.474;7.228;2022-09-13T13:14:05;24.40;99.90
50969;DHT22;36982;51.474;7.228;2022-09-13T13:16:37;24.30;99.90
50969;DHT22;36982;51.474;7.228;2022-09-13T13:19:31;24.20;99.90
50969;DHT22;36982;51.474;7.228;2022-09-13T13:27:51;24.70;99.90
50969;DHT22;36982;51.474;7.228;2022-09-13T13:33:22;24.70;99.90
50969;DHT22;36982;51.474;7.228;2022-09-13T13:35:50;24.70;99.90
50969;DHT22;36982;51.474;7.228;2022-09-13T13:38:38;24.60;99.90
50969;DHT22;36982;51.474;7.228;2022-09-13T13:57:35;24.50;99.90
50969;DHT22;36982;51.474;7.228;2022-09-13T14:00:19;24.50;99.90
50969;DHT22;36982;51.474;7.228;2022-09-13T14:05:56;24.60;99.90
50969;DHT22;36982;51.474;7.228;2022-09-13T14:20:20;25.00;99.90
50969;DHT22;36982;51.474;7.228;2022-09-13T14:22:47;24.90;99.90
50969;DHT22;36982;51.474;7.228;2022-09-13T14:27:46;24.90;99.90
50969;DHT22;36982;51.474;7.228;2022-09-13T14:30:25;25.00;99.90
50969;DHT22;36982;51.474;7.228;2022-09-13T14:32:56;25.00;99.90
50969;DHT22;36982;51.474;7.228;2022-09-13T14:35:29;25.10;99.90
50969;DHT22;36982;51.474;7.228;2022-09-13T14:37:56;25.20;99.90
50969;DHT22;36982;51.474;7.228;2022-09-13T14:40:33;25.20;99.90
50969;DHT22;36982;51.474;7.228;2022-09-13T14:42:59;25.10;99.90
50969;DHT22;36982;51.474;7.228;2022-09-13T14:45:31;25.10;99.90
50969;DHT22;36982;51.474;7.228;2022-09-13T14:48:09;25.20;99.90
50969;DHT22;36982;51.474;7.228;2022-09-13T14:50:46;25.20;99.90
50969;DHT22;36982;51.474;7.228;2022-09-13T14:53:23;25.20;99.90
50969;DHT22;36982;51.474;7.228;2022-09-13T14:55:56;25.20;99.90
50969;DHT22;36982;51.474;7.228;2022-09-13T14:58:27;25.20;99.90
50969;DHT22;36982;51.474;7.228;2022-09-13T15:03:22;25.30;99.90
50969;DHT22;36982;51.474;7.228;2022-09-13T15:05:57;25.00;99.90
50969;DHT22;36982;51.474;7.228;2022-09-13T15:10:59;24.60;99.90
50969;DHT22;36982;51.474;7.228;2022-09-13T15:13:25;24.50;99.90
50969;DHT22;36982;51.474;7.228;2022-09-13T15:15:54;24.50;99.90
50969;DHT22;36982;51.474;7.228;2022-09-13T15:23:31;24.50;99.90
50969;DHT22;36982;51.474;7.228;2022-09-13T15:26:20;24.40;99.90
50969;DHT22;36982;51.474;7.228;2022-09-13T15:28:48;24.40;99.90
50969;DHT22;36982;51.474;7.228;2022-09-13T15:31:22;24.10;99.90
50969;DHT22;36982;51.474;7.228;2022-09-13T15:34:10;24.00;99.90
50969;DHT22;36982;51.474;7.228;2022-09-13T15:36:36;24.00;99.90
50969;DHT22;36982;51.474;7.228;2022-09-13T15:39:17;24.10;99.90
50969;DHT22;36982;51.474;7.228;2022-09-13T15:42:04;24.20;99.90
50969;DHT22;36982;51.474;7.228;2022-09-13T15:44:30;24.10;99.90
50969;DHT22;36982;51.474;7.228;2022-09-13T15:46:59;24.00;99.90
50969;DHT22;36982;51.474;7.228;2022-09-13T15:49:30;23.80;99.90
50969;DHT22;36982;51.474;7.228;2022-09-13T15:51:58;23.70;99.90
50969;DHT22;36982;51.474;7.228;2022-09-13T15:54:32;23.70;99.90
50969;DHT22;36982;51.474;7.228;2022-09-13T15:56:59;23.70;99.90
50969;DHT22;36982;51.474;7.228;2022-09-13T15:59:24;23.70;99.90
50969;DHT22;36982;51.474;7.228;2022-09-13T16:01:51;23.60;99.90
50969;DHT22;36982;51.474;7.228;2022-09-13T16:04:21;23.60;99.90
50969;DHT22;36982;51.474;7.228;2022-09-13T16:06:47;23.50;99.90
50969;DHT22;36982;51.474;7.228;2022-09-13T16:09:17;23.60;99.90
50969;DHT22;36982;51.474;7.228;2022-09-13T16:11:44;23.60;99.90
50969;DHT22;36982;51.474;7.228;2022-09-13T16:14:10;23.50;99.90
50969;DHT22;36982;51.474;7.228;2022-09-13T16:16:35;23.60;99.90
50969;DHT22;36982;51.474;7.228;2022-09-13T16:19:01;23.60;99.90
50969;DHT22;36982;51.474;7.228;2022-09-13T16:21:27;23.50;99.90
50969;DHT22;36982;51.474;7.228;2022-09-13T16:23:54;23.50;99.90
50969;DHT22;36982;51.474;7.228;2022-09-13T16:26:19;23.60;99.90
50969;DHT22;36982;51.474;7.228;2022-09-13T16:28:45;23.60;99.90
50969;DHT22;36982;51.474;7.228;2022-09-13T16:31:11;23.60;99.90
50969;DHT22;36982;51.474;7.228;2022-09-13T16:33:38;23.60;99.90
50969;DHT22;36982;51.474;7.228;2022-09-13T16:36:04;23.70;99.90
50969;DHT22;36982;51.474;7.228;2022-09-13T16:38:30;23.60;99.90
50969;DHT22;36982;51.474;7.228;2022-09-13T16:40:55;23.70;99.90
50969;DHT22;36982;51.474;7.228;2022-09-13T16:43:21;23.60;99.90
50969;DHT22;36982;51.474;7.228;2022-09-13T16:45:47;23.60;99.90
50969;DHT22;36982;51.474;7.228;2022-09-13T16:48:14;23.50;99.90
50969;DHT22;36982;51.474;7.228;2022-09-13T16:50:40;23.50;99.90
50969;DHT22;36982;51.474;7.228;2022-09-13T16:53:07;23.40;99.90
50969;DHT22;36982;51.474;7.228;2022-09-13T16:55:33;23.40;99.90
50969;DHT22;36982;51.474;7.228;2022-09-13T16:57:58;23.40;99.90
50969;DHT22;36982;51.474;7.228;2022-09-13T17:00:24;23.30;99.90
50969;DHT22;36982;51.474;7.228;2022-09-13T17:02:53;23.10;99.90
50969;DHT22;36982;51.474;7.228;2022-09-13T17:05:20;23.20;99.90
50969;DHT22;36982;51.474;7.228;2022-09-13T17:07:46;23.30;99.90
50969;DHT22;36982;51.474;7.228;2022-09-13T17:10:12;23.20;99.90
50969;DHT22;36982;51.474;7.228;2022-09-13T17:12:38;23.20;99.90
50969;DHT22;36982;51.474;7.228;2022-09-13T17:15:04;23.30;99.90
50969;DHT22;36982;51.474;7.228;2022-09-13T17:17:30;23.30;99.90
50969;DHT22;36982;51.474;7.228;2022-09-13T17:20:02;23.20;99.90
50969;DHT22;36982;51.474;7.228;2022-09-13T17:22:28;23.20;99.90
50969;DHT22;36982;51.474;7.228;2022-09-13T17:24:53;23.20;99.90
50969;DHT22;36982;51.474;7.228;2022-09-13T17:27:19;23.00;99.90
50969;DHT22;36982;51.474;7.228;2022-09-13T17:29:44;22.90;99.90
50969;DHT22;36982;51.474;7.228;2022-09-13T17:32:10;22.90;99.90
50969;DHT22;36982;51.474;7.228;2022-09-13T17:34:36;22.90;99.90
50969;DHT22;36982;51.474;7.228;2022-09-13T17:37:01;22.90;99.90
50969;DHT22;36982;51.474;7.228;2022-09-13T17:39:28;22.80;99.90
50969;DHT22;36982;51.474;7.228;2022-09-13T17:41:53;22.60;99.90
50969;DHT22;36982;51.474;7.228;2022-09-13T17:44:19;22.50;99.90
50969;DHT22;36982;51.474;7.228;2022-09-13T17:46:45;22.50;99.90
50969;DHT22;36982;51.474;7.228;2022-09-13T17:49:10;22.40;99.90
50969;DHT22;36982;51.474;7.228;2022-09-13T17:51:36;22.30;99.90
50969;DHT22;36982;51.474;7.228;2022-09-13T17:54:04;22.10;99.90
50969;DHT22;36982;51.474;7.228;2022-09-13T17:56:37;22.10;99.90
50969;DHT22;36982;51.474;7.228;2022-09-13T17:59:17;22.10;99.90
50969;DHT22;36982;51.474;7.228;2022-09-13T18:01:46;22.20;99.90
50969;DHT22;36982;51.474;7.228;2022-09-13T18:04:13;22.20;99.90
50969;DHT22;36982;51.474;7.228;2022-09-13T18:06:39;22.10;99.90
50969;DHT22;36982;51.474;7.228;2022-09-13T18:09:11;22.10;99.90
50969;DHT22;36982;51.474;7.228;2022-09-13T18:11:38;22.10;99.90
50969;DHT22;36982;51.474;7.228;2022-09-13T18:14:05;22.00;99.90
50969;DHT22;36982;51.474;7.228;2022-09-13T18:16:31;22.00;99.90
50969;DHT22;36982;51.474;7.228;2022-09-13T18:18:58;21.90;99.90
50969;DHT22;36982;51.474;7.228;2022-09-13T18:21:24;21.90;99.90
50969;DHT22;36982;51.474;7.228;2022-09-13T18:23:52;21.90;99.90
50969;DHT22;36982;51.474;7.228;2022-09-13T18:26:20;21.90;99.90
50969;DHT22;36982;51.474;7.228;2022-09-13T18:28:51;21.90;99.90
50969;DHT22;36982;51.474;7.228;2022-09-13T18:31:17;21.90;99.90
50969;DHT22;36982;51.474;7.228;2022-09-13T18:33:44;21.90;99.90
50969;DHT22;36982;51.474;7.228;2022-09-13T18:36:12;21.90;99.90
50969;DHT22;36982;51.474;7.228;2022-09-13T18:38:40;21.90;99.90
50969;DHT22;36982;51.474;7.228;2022-09-13T18:41:18;21.90;99.90
50969;DHT22;36982;51.474;7.228;2022-09-13T18:43:45;21.80;99.90
50969;DHT22;36982;51.474;7.228;2022-09-13T18:46:13;21.80;99.90
50969;DHT22;36982;51.474;7.228;2022-09-13T18:48:42;21.90;99.90
50969;DHT22;36982;51.474;7.228;2022-09-13T18:51:10;21.80;99.90
50969;DHT22;36982;51.474;7.228;2022-09-13T18:53:37;21.90;99.90
50969;DHT22;36982;51.474;7.228;2022-09-13T18:56:05;21.90;99.90
50969;DHT22;36982;51.474;7.228;2022-09-13T18:58:35;21.90;99.90
50969;DHT22;36982;51.474;7.228;2022-09-13T19:01:09;21.90;99.90
50969;DHT22;36982;51.474;7.228;2022-09-13T19:03:36;21.80;99.90
50969;DHT22;36982;51.474;7.228;2022-09-13T19:06:14;21.70;99.90
50969;DHT22;36982;51.474;7.228;2022-09-13T19:08:41;21.60;99.90
50969;DHT22;36982;51.474;7.228;2022-09-13T19:11:07;21.60;99.90
50969;DHT22;36982;51.474;7.228;2022-09-13T19:13:34;21.60;99.90
50969;DHT22;36982;51.474;7.228;2022-09-13T19:16:02;21.60;99.90
50969;DHT22;36982;51.474;7.228;2022-09-13T19:18:29;21.60;99.90
50969;DHT22;36982;51.474;7.228;2022-09-13T19:23:30;21.60;99.90
50969;DHT22;36982;51.474;7.228;2022-09-13T19:26:11;21.50;99.90